sensor_id;sensor_type;location;lat;lon;timestamp;pressure;altitude;pressure_sealevel;temperature;humidity
26436;BME280;15351;52.408;16.826;2023-01-30T00:01:32;100609.77;;;2.30;81.01
26436;BME280;15351;52.408;16.826;2023-01-30T00:04:03;100604.83;;;2.32;80.90
26436;BME280;15351;52.408;16.826;2023-01-30T00:06:33;100600.42;;;2.36;80.89
26436;BME280;15351;52.408;16.826;2023-01-30T00:09:00;100594.05;;;2.40;80.66
26436;BME280;15351;52.408;16.826;2023-01-30T00:11:27;100592.93;;;2.39;80.38
26436;BME280;15351;52.408;16.826;2023-01-30T00:13:56;100582.73;;;2.38;80.54
26436;BME280;15351;52.408;16.826;2023-01-30T00:16:25;100580.61;;;2.40;80.47
26436;BME280;15351;52.408;16.826;2023-01-30T00:18:54;100579.96;;;2.41;80.36
26436;BME280;15351;52.408;16.826;2023-01-30T00:21:24;100576.23;;;2.37;80.05
26436;BME280;15351;52.408;16.826;2023-01-30T00:23:51;100569.48;;;2.32;80.07
26436;BME280;15351;52.408;16.826;2023-01-30T00:26:19;100564.02;;;2.28;80.26
26436;BME280;15351;52.408;16.826;2023-01-30T00:28:46;100558.29;;;2.24;80.21
26436;BME280;15351;52.408;16.826;2023-01-30T00:31:13;100555.10;;;2.24;80.48
26436;BME280;15351;52.408;16.826;2023-01-30T00:33:40;100550.09;;;2.25;80.63
26436;BME280;15351;52.408;16.826;2023-01-30T00:36:09;100540.17;;;2.25;80.47
26436;BME280;15351;52.408;16.826;2023-01-30T00:38:38;100532.46;;;2.21;80.39
26436;BME280;15351;52.408;16.826;2023-01-30T00:41:07;100528.18;;;2.19;80.48
26436;BME280;15351;52.408;16.826;2023-01-30T00:43:37;100522.44;;;2.18;80.64
26436;BME280;15351;52.408;16.826;2023-01-30T00:46:28;100512.44;;;2.21;80.71
26436;BME280;15351;52.408;16.826;2023-01-30T00:49:15;100503.88;;;2.21;80.68
26436;BME280;15351;52.408;16.826;2023-01-30T00:51:43;100497.10;;;2.24;80.73
26436;BME280;15351;52.408;16.826;2023-01-30T00:54:10;100494.63;;;2.28;80.51
26436;BME280;15351;52.408;16.826;2023-01-30T00:56:37;100492.57;;;2.28;80.18
26436;BME280;15351;52.408;16.826;2023-01-30T00:59:05;100494.43;;;2.26;80.20
26436;BME280;15351;52.408;16.826;2023-01-30T01:01:32;100488.61;;;2.26;80.13
26436;BME280;15351;52.408;16.826;2023-01-30T01:03:59;100489.36;;;2.28;80.12
26436;BME280;15351;52.408;16.826;2023-01-30T01:06:30;100486.19;;;2.32;80.12
26436;BME280;15351;52.408;16.826;2023-01-30T01:09:01;100478.59;;;2.33;79.78
26436;BME280;15351;52.408;16.826;2023-01-30T01:11:32;100467.98;;;2.31;79.52
26436;BME280;15351;52.408;16.826;2023-01-30T01:14:03;100465.88;;;2.28;79.41
26436;BME280;15351;52.408;16.826;2023-01-30T01:16:52;100466.00;;;2.29;79.35
26436;BME280;15351;52.408;16.826;2023-01-30T01:19:22;100460.44;;;2.30;79.25
26436;BME280;15351;52.408;16.826;2023-01-30T01:21:50;100457.77;;;2.32;79.14
26436;BME280;15351;52.408;16.826;2023-01-30T01:24:17;100440.72;;;2.32;78.91
26436;BME280;15351;52.408;16.826;2023-01-30T01:26:46;100438.49;;;2.31;78.71
26436;BME280;15351;52.408;16.826;2023-01-30T01:29:14;100428.86;;;2.28;78.70
26436;BME280;15351;52.408;16.826;2023-01-30T01:31:42;100417.45;;;2.33;78.87
26436;BME280;15351;52.408;16.826;2023-01-30T01:34:10;100407.22;;;2.39;78.60
26436;BME280;15351;52.408;16.826;2023-01-30T01:36:37;100407.19;;;2.39;78.32
26436;BME280;15351;52.408;16.826;2023-01-30T01:39:06;100405.64;;;2.36;78.18
26436;BME280;15351;52.408;16.826;2023-01-30T01:41:34;100400.36;;;2.33;78.22
26436;BME280;15351;52.408;16.826;2023-01-30T01:44:11;100392.98;;;2.35;78.33
26436;BME280;15351;52.408;16.826;2023-01-30T01:46:44;100388.58;;;2.34;78.00
26436;BME280;15351;52.408;16.826;2023-01-30T01:49:29;100378.80;;;2.35;78.02
26436;BME280;15351;52.408;16.826;2023-01-30T01:52:10;100369.76;;;2.35;77.94
26436;BME280;15351;52.408;16.826;2023-01-30T01:54:58;100356.56;;;2.29;77.85
26436;BME280;15351;52.408;16.826;2023-01-30T01:57:52;100338.20;;;2.30;78.03
26436;BME280;15351;52.408;16.826;2023-01-30T02:00:25;100324.86;;;2.35;77.80
26436;BME280;15351;52.408;16.826;2023-01-30T02:03:02;100309.27;;;2.32;77.58
26436;BME280;15351;52.408;16.826;2023-01-30T02:05:36;100309.59;;;2.33;77.60
26436;BME280;15351;52.408;16.826;2023-01-30T02:08:14;100294.80;;;2.32;77.56
26436;BME280;15351;52.408;16.826;2023-01-30T02:11:02;100290.96;;;2.33;77.68
26436;BME280;15351;52.408;16.826;2023-01-30T02:13:47;100274.47;;;2.33;77.33
26436;BME280;15351;52.408;16.826;2023-01-30T02:16:19;100275.44;;;2.30;77.27
26436;BME280;15351;52.408;16.826;2023-01-30T02:18:48;100269.89;;;2.28;77.37
26436;BME280;15351;52.408;16.826;2023-01-30T02:21:55;100252.94;;;2.30;77.28
26436;BME280;15351;52.408;16.826;2023-01-30T02:24:59;100249.60;;;2.31;77.30
26436;BME280;15351;52.408;16.826;2023-01-30T02:31:59;100223.79;;;2.33;76.86
26436;BME280;15351;52.408;16.826;2023-01-30T02:35:12;100214.14;;;2.27;76.78
26436;BME280;15351;52.408;16.826;2023-01-30T02:44:04;100197.80;;;2.27;76.85
26436;BME280;15351;52.408;16.826;2023-01-30T02:47:10;100192.44;;;2.26;76.76
26436;BME280;15351;52.408;16.826;2023-01-30T02:50:06;100185.17;;;2.22;76.83
26436;BME280;15351;52.408;16.826;2023-01-30T02:52:38;100164.73;;;2.20;76.85
26436;BME280;15351;52.408;16.826;2023-01-30T02:55:18;100140.04;;;2.23;76.87
26436;BME280;15351;52.408;16.826;2023-01-30T02:57:48;100122.70;;;2.22;76.63
26436;BME280;15351;52.408;16.826;2023-01-30T03:00:49;100115.78;;;2.20;76.62
26436;BME280;15351;52.408;16.826;2023-01-30T03:09:57;100137.57;;;2.19;76.46
26436;BME280;15351;52.408;16.826;2023-01-30T03:12:55;100161.23;;;2.18;76.47
26436;BME280;15351;52.408;16.826;2023-01-30T03:15:32;100165.77;;;2.12;76.48
26436;BME280;15351;52.408;16.826;2023-01-30T03:18:00;100167.73;;;2.12;76.69
26436;BME280;15351;52.408;16.826;2023-01-30T03:20:29;100160.88;;;2.18;76.62
26436;BME280;15351;52.408;16.826;2023-01-30T03:22:57;100163.38;;;2.20;76.49
26436;BME280;15351;52.408;16.826;2023-01-30T03:25:26;100156.52;;;2.19;76.34
26436;BME280;15351;52.408;16.826;2023-01-30T03:27:54;100156.90;;;2.19;76.35
26436;BME280;15351;52.408;16.826;2023-01-30T03:30:46;100145.95;;;2.18;76.37
26436;BME280;15351;52.408;16.826;2023-01-30T03:33:13;100128.23;;;2.20;76.34
26436;BME280;15351;52.408;16.826;2023-01-30T03:35:43;100120.54;;;2.21;76.04
26436;BME280;15351;52.408;16.826;2023-01-30T03:38:13;100107.73;;;2.19;75.91
26436;BME280;15351;52.408;16.826;2023-01-30T03:40:41;100097.11;;;2.17;75.98
26436;BME280;15351;52.408;16.826;2023-01-30T03:43:10;100086.83;;;2.13;76.06
26436;BME280;15351;52.408;16.826;2023-01-30T03:45:40;100087.59;;;2.17;76.14
26436;BME280;15351;52.408;16.826;2023-01-30T03:48:10;100087.88;;;2.19;76.12
26436;BME280;15351;52.408;16.826;2023-01-30T03:50:39;100080.55;;;2.20;75.93
26436;BME280;15351;52.408;16.826;2023-01-30T03:53:06;100069.92;;;2.20;75.96
26436;BME280;15351;52.408;16.826;2023-01-30T03:55:36;100066.81;;;2.19;76.09
26436;BME280;15351;52.408;16.826;2023-01-30T03:58:10;100072.08;;;2.21;76.03
26436;BME280;15351;52.408;16.826;2023-01-30T04:00:40;100056.81;;;2.21;75.81
26436;BME280;15351;52.408;16.826;2023-01-30T04:03:10;100053.95;;;2.20;75.82
26436;BME280;15351;52.408;16.826;2023-01-30T04:05:40;100048.77;;;2.18;76.07
26436;BME280;15351;52.408;16.826;2023-01-30T04:08:09;100036.84;;;2.17;76.14
26436;BME280;15351;52.408;16.826;2023-01-30T04:10:36;100032.41;;;2.17;76.47
26436;BME280;15351;52.408;16.826;2023-01-30T04:13:04;100027.10;;;2.17;76.40
26436;BME280;15351;52.408;16.826;2023-01-30T04:15:34;100016.89;;;2.18;76.53
26436;BME280;15351;52.408;16.826;2023-01-30T04:18:18;100011.89;;;2.14;76.53
26436;BME280;15351;52.408;16.826;2023-01-30T04:20:56;100013.09;;;2.11;76.73
26436;BME280;15351;52.408;16.826;2023-01-30T04:23:50;100007.27;;;2.08;77.00
26436;BME280;15351;52.408;16.826;2023-01-30T04:26:18;100008.37;;;2.08;77.33
26436;BME280;15351;52.408;16.826;2023-01-30T04:28:45;100003.45;;;2.08;77.47
26436;BME280;15351;52.408;16.826;2023-01-30T04:31:13;99999.24;;;2.09;77.65
26436;BME280;15351;52.408;16.826;2023-01-30T04:33:44;99989.98;;;2.09;77.80
26436;BME280;15351;52.408;16.826;2023-01-30T04:36:12;99992.83;;;2.06;78.05
26436;BME280;15351;52.408;16.826;2023-01-30T04:38:39;99994.87;;;2.05;78.35
26436;BME280;15351;52.408;16.826;2023-01-30T04:41:14;99989.67;;;2.05;78.51
26436;BME280;15351;52.408;16.826;2023-01-30T04:43:42;99990.34;;;2.08;78.59
26436;BME280;15351;52.408;16.826;2023-01-30T04:46:29;99994.84;;;2.05;78.60
26436;BME280;15351;52.408;16.826;2023-01-30T04:48:58;99987.64;;;2.02;78.72
26436;BME280;15351;52.408;16.826;2023-01-30T04:51:28;99979.46;;;2.02;78.85
26436;BME280;15351;52.408;16.826;2023-01-30T04:54:00;99970.55;;;2.03;78.99
26436;BME280;15351;52.408;16.826;2023-01-30T04:56:27;99972.48;;;2.03;78.87
26436;BME280;15351;52.408;16.826;2023-01-30T04:58:55;99957.12;;;2.07;79.04
26436;BME280;15351;52.408;16.826;2023-01-30T05:01:48;99950.26;;;2.06;79.05
26436;BME280;15351;52.408;16.826;2023-01-30T05:04:20;99945.86;;;2.01;79.16
26436;BME280;15351;52.408;16.826;2023-01-30T05:06:48;99941.93;;;2.01;79.34
26436;BME280;15351;52.408;16.826;2023-01-30T05:09:18;99938.67;;;2.05;79.37
26436;BME280;15351;52.408;16.826;2023-01-30T05:11:46;99934.06;;;2.07;79.41
26436;BME280;15351;52.408;16.826;2023-01-30T05:14:14;99920.16;;;2.05;79.45
26436;BME280;15351;52.408;16.826;2023-01-30T05:16:42;99909.81;;;2.08;79.67
26436;BME280;15351;52.408;16.826;2023-01-30T05:19:22;99906.90;;;2.05;79.81
26436;BME280;15351;52.408;16.826;2023-01-30T05:21:52;99898.02;;;2.07;80.03
26436;BME280;15351;52.408;16.826;2023-01-30T05:24:23;99883.66;;;2.11;80.18
26436;BME280;15351;52.408;16.826;2023-01-30T05:26:51;99877.88;;;2.14;80.22
26436;BME280;15351;52.408;16.826;2023-01-30T05:29:23;99870.96;;;2.12;80.31
26436;BME280;15351;52.408;16.826;2023-01-30T05:31:51;99866.37;;;2.14;80.58
26436;BME280;15351;52.408;16.826;2023-01-30T05:34:22;99863.55;;;2.10;80.80
26436;BME280;15351;52.408;16.826;2023-01-30T05:36:49;99860.14;;;2.09;81.08
26436;BME280;15351;52.408;16.826;2023-01-30T05:39:21;99853.25;;;2.10;81.24
26436;BME280;15351;52.408;16.826;2023-01-30T05:41:48;99850.48;;;2.11;81.50
26436;BME280;15351;52.408;16.826;2023-01-30T05:44:16;99844.23;;;2.19;81.60
26436;BME280;15351;52.408;16.826;2023-01-30T05:46:45;99833.78;;;2.21;81.59
26436;BME280;15351;52.408;16.826;2023-01-30T05:49:13;99833.53;;;2.20;81.49
26436;BME280;15351;52.408;16.826;2023-01-30T05:51:46;99824.69;;;2.16;81.62
26436;BME280;15351;52.408;16.826;2023-01-30T05:54:15;99829.16;;;2.10;81.71
26436;BME280;15351;52.408;16.826;2023-01-30T05:56:42;99822.76;;;2.12;81.87
26436;BME280;15351;52.408;16.826;2023-01-30T05:59:10;99820.58;;;2.16;82.07
26436;BME280;15351;52.408;16.826;2023-01-30T06:01:38;99813.79;;;2.17;81.93
26436;BME280;15351;52.408;16.826;2023-01-30T06:04:05;99817.38;;;2.16;81.91
26436;BME280;15351;52.408;16.826;2023-01-30T06:06:36;99812.45;;;2.16;81.89
26436;BME280;15351;52.408;16.826;2023-01-30T06:09:05;99808.39;;;2.16;82.05
26436;BME280;15351;52.408;16.826;2023-01-30T06:11:34;99799.52;;;2.18;82.08
26436;BME280;15351;52.408;16.826;2023-01-30T06:14:04;99798.83;;;2.18;82.02
26436;BME280;15351;52.408;16.826;2023-01-30T06:16:32;99795.91;;;2.15;81.97
26436;BME280;15351;52.408;16.826;2023-01-30T06:19:00;99802.94;;;2.12;82.05
26436;BME280;15351;52.408;16.826;2023-01-30T06:21:27;99800.08;;;2.06;82.20
26436;BME280;15351;52.408;16.826;2023-01-30T06:23:54;99797.13;;;2.01;82.27
26436;BME280;15351;52.408;16.826;2023-01-30T06:26:22;99796.75;;;2.02;82.35
26436;BME280;15351;52.408;16.826;2023-01-30T06:28:50;99796.45;;;2.03;82.49
26436;BME280;15351;52.408;16.826;2023-01-30T06:31:18;99798.23;;;2.07;82.55
26436;BME280;15351;52.408;16.826;2023-01-30T06:33:52;99800.11;;;2.08;82.40
26436;BME280;15351;52.408;16.826;2023-01-30T06:36:27;99793.55;;;2.06;82.48
26436;BME280;15351;52.408;16.826;2023-01-30T06:38:57;99787.77;;;2.09;82.69
26436;BME280;15351;52.408;16.826;2023-01-30T06:41:25;99791.10;;;2.07;82.67
26436;BME280;15351;52.408;16.826;2023-01-30T06:43:52;99779.98;;;2.10;82.82
26436;BME280;15351;52.408;16.826;2023-01-30T06:46:19;99783.70;;;2.16;82.86
26436;BME280;15351;52.408;16.826;2023-01-30T06:48:47;99786.61;;;2.21;82.83
26436;BME280;15351;52.408;16.826;2023-01-30T06:51:19;99782.07;;;2.24;82.83
26436;BME280;15351;52.408;16.826;2023-01-30T06:53:48;99776.16;;;2.23;82.81
26436;BME280;15351;52.408;16.826;2023-01-30T06:56:15;99767.15;;;2.23;82.75
26436;BME280;15351;52.408;16.826;2023-01-30T06:58:44;99768.83;;;2.25;83.00
26436;BME280;15351;52.408;16.826;2023-01-30T07:01:12;99761.30;;;2.28;82.96
26436;BME280;15351;52.408;16.826;2023-01-30T07:03:40;99758.30;;;2.30;83.07
26436;BME280;15351;52.408;16.826;2023-01-30T07:06:12;99758.10;;;2.36;83.21
26436;BME280;15351;52.408;16.826;2023-01-30T07:08:39;99757.04;;;2.36;83.14
26436;BME280;15351;52.408;16.826;2023-01-30T07:11:07;99751.49;;;2.36;83.20
26436;BME280;15351;52.408;16.826;2023-01-30T07:13:35;99748.17;;;2.38;83.44
26436;BME280;15351;52.408;16.826;2023-01-30T07:16:02;99741.11;;;2.33;83.55
26436;BME280;15351;52.408;16.826;2023-01-30T07:18:33;99728.60;;;2.35;83.78
26436;BME280;15351;52.408;16.826;2023-01-30T07:21:06;99724.61;;;2.36;83.85
26436;BME280;15351;52.408;16.826;2023-01-30T07:23:33;99722.52;;;2.39;83.98
26436;BME280;15351;52.408;16.826;2023-01-30T07:26:03;99724.03;;;2.43;84.31
26436;BME280;15351;52.408;16.826;2023-01-30T07:28:30;99722.77;;;2.45;84.12
26436;BME280;15351;52.408;16.826;2023-01-30T07:30:59;99722.48;;;2.44;84.30
26436;BME280;15351;52.408;16.826;2023-01-30T07:33:29;99710.60;;;2.46;84.50
26436;BME280;15351;52.408;16.826;2023-01-30T07:35:56;99708.86;;;2.46;84.52
26436;BME280;15351;52.408;16.826;2023-01-30T07:38:24;99714.08;;;2.43;84.60
26436;BME280;15351;52.408;16.826;2023-01-30T07:40:51;99705.40;;;2.43;84.60
26436;BME280;15351;52.408;16.826;2023-01-30T07:43:20;99710.74;;;2.44;84.73
26436;BME280;15351;52.408;16.826;2023-01-30T07:45:47;99703.20;;;2.47;84.83
26436;BME280;15351;52.408;16.826;2023-01-30T07:48:17;99711.63;;;2.48;84.97
26436;BME280;15351;52.408;16.826;2023-01-30T07:50:46;99713.17;;;2.47;85.06
26436;BME280;15351;52.408;16.826;2023-01-30T07:53:16;99711.83;;;2.48;84.95
26436;BME280;15351;52.408;16.826;2023-01-30T07:55:47;99709.85;;;2.50;85.23
26436;BME280;15351;52.408;16.826;2023-01-30T07:58:15;99708.89;;;2.55;85.22
26436;BME280;15351;52.408;16.826;2023-01-30T08:00:43;99712.88;;;2.58;85.26
26436;BME280;15351;52.408;16.826;2023-01-30T08:03:13;99710.09;;;2.60;85.27
26436;BME280;15351;52.408;16.826;2023-01-30T08:05:42;99700.05;;;2.60;85.32
26436;BME280;15351;52.408;16.826;2023-01-30T08:08:28;99702.54;;;2.60;85.47
26436;BME280;15351;52.408;16.826;2023-01-30T08:10:55;99693.65;;;2.62;85.38
26436;BME280;15351;52.408;16.826;2023-01-30T08:13:21;99690.77;;;2.66;85.40
26436;BME280;15351;52.408;16.826;2023-01-30T08:15:49;99690.14;;;2.67;85.45
26436;BME280;15351;52.408;16.826;2023-01-30T08:18:16;99691.84;;;2.69;85.58
26436;BME280;15351;52.408;16.826;2023-01-30T08:20:45;99685.96;;;2.73;85.47
26436;BME280;15351;52.408;16.826;2023-01-30T08:23:13;99680.75;;;2.74;85.45
26436;BME280;15351;52.408;16.826;2023-01-30T08:25:48;99673.63;;;2.76;85.44
26436;BME280;15351;52.408;16.826;2023-01-30T08:28:15;99675.67;;;2.77;85.47
26436;BME280;15351;52.408;16.826;2023-01-30T08:30:44;99674.48;;;2.76;85.56
26436;BME280;15351;52.408;16.826;2023-01-30T08:33:12;99668.70;;;2.77;85.56
26436;BME280;15351;52.408;16.826;2023-01-30T08:35:42;99674.77;;;2.81;85.47
26436;BME280;15351;52.408;16.826;2023-01-30T08:38:09;99668.09;;;2.82;85.54
26436;BME280;15351;52.408;16.826;2023-01-30T08:40:37;99665.80;;;2.85;85.67
26436;BME280;15351;52.408;16.826;2023-01-30T08:43:04;99658.06;;;2.88;85.39
26436;BME280;15351;52.408;16.826;2023-01-30T08:45:34;99647.23;;;2.93;85.55
26436;BME280;15351;52.408;16.826;2023-01-30T08:48:04;99648.55;;;2.96;85.53
26436;BME280;15351;52.408;16.826;2023-01-30T08:50:32;99654.08;;;2.95;85.54
26436;BME280;15351;52.408;16.826;2023-01-30T08:53:05;99655.45;;;2.96;85.50
26436;BME280;15351;52.408;16.826;2023-01-30T08:55:32;99658.61;;;3.02;85.61
26436;BME280;15351;52.408;16.826;2023-01-30T08:58:00;99650.57;;;3.06;85.61
26436;BME280;15351;52.408;16.826;2023-01-30T09:00:27;99649.42;;;3.08;85.49
26436;BME280;15351;52.408;16.826;2023-01-30T09:02:55;99652.44;;;3.10;85.43
26436;BME280;15351;52.408;16.826;2023-01-30T09:05:24;99640.66;;;3.12;85.53
26436;BME280;15351;52.408;16.826;2023-01-30T09:07:54;99647.57;;;3.13;85.48
26436;BME280;15351;52.408;16.826;2023-01-30T09:10:21;99639.61;;;3.16;85.55
26436;BME280;15351;52.408;16.826;2023-01-30T09:12:49;99637.12;;;3.20;85.66
26436;BME280;15351;52.408;16.826;2023-01-30T09:15:17;99636.71;;;3.22;85.64
26436;BME280;15351;52.408;16.826;2023-01-30T09:17:47;99636.59;;;3.28;85.71
26436;BME280;15351;52.408;16.826;2023-01-30T09:20:14;99643.00;;;3.28;85.49
26436;BME280;15351;52.408;16.826;2023-01-30T09:22:42;99643.83;;;3.25;85.46
26436;BME280;15351;52.408;16.826;2023-01-30T09:25:09;99644.15;;;3.24;85.61
26436;BME280;15351;52.408;16.826;2023-01-30T09:27:37;99639.80;;;3.25;85.64
26436;BME280;15351;52.408;16.826;2023-01-30T09:30:06;99639.96;;;3.25;85.68
26436;BME280;15351;52.408;16.826;2023-01-30T09:32:34;99640.39;;;3.24;85.68
26436;BME280;15351;52.408;16.826;2023-01-30T09:35:05;99641.69;;;3.29;85.73
26436;BME280;15351;52.408;16.826;2023-01-30T09:37:33;99646.83;;;3.32;85.70
26436;BME280;15351;52.408;16.826;2023-01-30T09:40:00;99638.23;;;3.34;85.78
26436;BME280;15351;52.408;16.826;2023-01-30T09:53:38;99620.41;;;3.44;85.76
26436;BME280;15351;52.408;16.826;2023-01-30T09:56:07;99616.99;;;3.48;85.84
26436;BME280;15351;52.408;16.826;2023-01-30T09:58:46;99616.42;;;3.48;85.71
26436;BME280;15351;52.408;16.826;2023-01-30T10:01:50;99619.52;;;3.51;85.78
26436;BME280;15351;52.408;16.826;2023-01-30T10:04:35;99618.50;;;3.54;85.75
26436;BME280;15351;52.408;16.826;2023-01-30T10:26:42;99594.29;;;3.61;85.99
26436;BME280;15351;52.408;16.826;2023-01-30T10:32:23;99589.11;;;3.66;85.90
26436;BME280;15351;52.408;16.826;2023-01-30T10:34:58;99590.80;;;3.65;85.93
26436;BME280;15351;52.408;16.826;2023-01-30T10:37:31;99597.27;;;3.67;86.01
26436;BME280;15351;52.408;16.826;2023-01-30T10:40:29;99593.63;;;3.69;86.12
26436;BME280;15351;52.408;16.826;2023-01-30T10:48:44;99579.52;;;3.76;85.87
26436;BME280;15351;52.408;16.826;2023-01-30T10:54:43;99578.02;;;3.80;85.90
26436;BME280;15351;52.408;16.826;2023-01-30T10:57:29;99577.19;;;3.83;85.83
26436;BME280;15351;52.408;16.826;2023-01-30T11:00:07;99571.52;;;3.83;85.96
26436;BME280;15351;52.408;16.826;2023-01-30T11:05:33;99563.48;;;3.90;86.01
26436;BME280;15351;52.408;16.826;2023-01-30T11:10:50;99558.46;;;3.97;86.06
26436;BME280;15351;52.408;16.826;2023-01-30T11:13:22;99556.74;;;4.00;86.05
26436;BME280;15351;52.408;16.826;2023-01-30T11:15:55;99553.96;;;4.06;86.03
26436;BME280;15351;52.408;16.826;2023-01-30T11:18:23;99545.75;;;4.15;86.16
26436;BME280;15351;52.408;16.826;2023-01-30T11:21:30;99546.67;;;4.21;85.98
26436;BME280;15351;52.408;16.826;2023-01-30T11:24:11;99549.28;;;4.23;85.90
26436;BME280;15351;52.408;16.826;2023-01-30T11:26:40;99547.27;;;4.25;85.77
26436;BME280;15351;52.408;16.826;2023-01-30T11:31:49;99530.27;;;4.33;85.84
26436;BME280;15351;52.408;16.826;2023-01-30T11:34:19;99532.33;;;4.40;85.86
26436;BME280;15351;52.408;16.826;2023-01-30T11:36:46;99522.80;;;4.41;85.48
26436;BME280;15351;52.408;16.826;2023-01-30T11:39:26;99525.96;;;4.41;85.48
26436;BME280;15351;52.408;16.826;2023-01-30T11:41:59;99528.70;;;4.41;85.59
26436;BME280;15351;52.408;16.826;2023-01-30T11:44:34;99521.70;;;4.43;85.61
26436;BME280;15351;52.408;16.826;2023-01-30T11:47:12;99522.39;;;4.50;85.76
26436;BME280;15351;52.408;16.826;2023-01-30T11:49:45;99518.80;;;4.55;85.74
26436;BME280;15351;52.408;16.826;2023-01-30T11:52:16;99518.27;;;4.60;85.70
26436;BME280;15351;52.408;16.826;2023-01-30T11:55:03;99514.07;;;4.59;85.55
26436;BME280;15351;52.408;16.826;2023-01-30T11:57:49;99512.94;;;4.64;85.54
26436;BME280;15351;52.408;16.826;2023-01-30T12:00:22;99508.52;;;4.69;85.37
26436;BME280;15351;52.408;16.826;2023-01-30T12:02:52;99511.55;;;4.71;85.20
26436;BME280;15351;52.408;16.826;2023-01-30T12:05:39;99505.08;;;4.70;85.23
26436;BME280;15351;52.408;16.826;2023-01-30T12:10:53;99502.87;;;4.72;85.44
26436;BME280;15351;52.408;16.826;2023-01-30T12:13:44;99509.86;;;4.77;85.34
26436;BME280;15351;52.408;16.826;2023-01-30T12:16:46;99506.12;;;4.80;85.32
26436;BME280;15351;52.408;16.826;2023-01-30T12:22:21;99504.19;;;4.81;84.93
26436;BME280;15351;52.408;16.826;2023-01-30T12:25:02;99503.19;;;4.80;85.05
26436;BME280;15351;52.408;16.826;2023-01-30T12:28:04;99501.13;;;4.83;85.07
26436;BME280;15351;52.408;16.826;2023-01-30T12:30:41;99488.84;;;4.84;84.94
26436;BME280;15351;52.408;16.826;2023-01-30T12:33:12;99474.48;;;4.83;85.06
26436;BME280;15351;52.408;16.826;2023-01-30T12:35:56;99473.98;;;4.90;85.25
26436;BME280;15351;52.408;16.826;2023-01-30T12:39:34;99467.92;;;5.06;85.46
26436;BME280;15351;52.408;16.826;2023-01-30T13:03:57;99444.23;;;5.51;83.40
26436;BME280;15351;52.408;16.826;2023-01-30T13:07:00;99437.14;;;5.47;83.37
26436;BME280;15351;52.408;16.826;2023-01-30T13:21:04;99430.50;;;5.50;83.37
26436;BME280;15351;52.408;16.826;2023-01-30T13:26:27;99434.83;;;5.54;83.24
26436;BME280;15351;52.408;16.826;2023-01-30T13:29:10;99436.35;;;5.61;83.08
26436;BME280;15351;52.408;16.826;2023-01-30T13:31:48;99432.71;;;5.63;82.96
26436;BME280;15351;52.408;16.826;2023-01-30T13:34:33;99432.77;;;5.66;82.77
26436;BME280;15351;52.408;16.826;2023-01-30T13:37:17;99436.17;;;5.64;82.72
26436;BME280;15351;52.408;16.826;2023-01-30T13:39:54;99443.13;;;5.64;82.91
26436;BME280;15351;52.408;16.826;2023-01-30T13:45:28;99435.95;;;5.70;82.66
26436;BME280;15351;52.408;16.826;2023-01-30T13:53:53;99442.69;;;5.65;82.74
26436;BME280;15351;52.408;16.826;2023-01-30T13:56:40;99441.25;;;5.67;82.61
26436;BME280;15351;52.408;16.826;2023-01-30T13:59:58;99445.35;;;5.68;82.61
26436;BME280;15351;52.408;16.826;2023-01-30T14:11:31;99440.21;;;5.43;83.36
26436;BME280;15351;52.408;16.826;2023-01-30T14:14:03;99445.73;;;5.40;83.58
26436;BME280;15351;52.408;16.826;2023-01-30T14:16:50;99439.16;;;5.35;83.63
26436;BME280;15351;52.408;16.826;2023-01-30T14:19:43;99445.73;;;5.27;83.64
26436;BME280;15351;52.408;16.826;2023-01-30T14:22:48;99447.40;;;5.25;84.00
26436;BME280;15351;52.408;16.826;2023-01-30T14:30:53;99455.69;;;5.24;84.40
26436;BME280;15351;52.408;16.826;2023-01-30T14:38:33;99457.05;;;5.27;84.76
26436;BME280;15351;52.408;16.826;2023-01-30T14:49:09;99476.44;;;5.26;85.25
26436;BME280;15351;52.408;16.826;2023-01-30T14:51:56;99473.60;;;5.28;85.32
26436;BME280;15351;52.408;16.826;2023-01-30T14:54:33;99473.86;;;5.31;85.32
26436;BME280;15351;52.408;16.826;2023-01-30T14:57:17;99465.13;;;5.34;85.40
26436;BME280;15351;52.408;16.826;2023-01-30T15:00:05;99463.26;;;5.33;85.38
26436;BME280;15351;52.408;16.826;2023-01-30T15:02:46;99475.75;;;5.38;85.34
26436;BME280;15351;52.408;16.826;2023-01-30T15:05:26;99484.34;;;5.39;85.22
26436;BME280;15351;52.408;16.826;2023-01-30T15:08:15;99486.44;;;5.41;85.16
26436;BME280;15351;52.408;16.826;2023-01-30T15:11:22;99484.66;;;5.44;85.12
26436;BME280;15351;52.408;16.826;2023-01-30T15:16:55;99480.05;;;5.41;84.86
26436;BME280;15351;52.408;16.826;2023-01-30T15:22:56;99478.55;;;5.43;84.61
26436;BME280;15351;52.408;16.826;2023-01-30T15:28:35;99478.01;;;5.45;84.46
26436;BME280;15351;52.408;16.826;2023-01-30T15:31:20;99475.67;;;5.46;84.42
26436;BME280;15351;52.408;16.826;2023-01-30T15:33:53;99477.27;;;5.40;84.12
26436;BME280;15351;52.408;16.826;2023-01-30T15:36:35;99485.52;;;5.33;84.29
26436;BME280;15351;52.408;16.826;2023-01-30T15:42:07;99496.52;;;5.27;84.29
26436;BME280;15351;52.408;16.826;2023-01-30T15:44:51;99495.02;;;5.27;84.47
26436;BME280;15351;52.408;16.826;2023-01-30T15:50:58;99482.31;;;5.24;84.59
26436;BME280;15351;52.408;16.826;2023-01-30T15:53:33;99483.91;;;5.17;84.35
26436;BME280;15351;52.408;16.826;2023-01-30T15:56:30;99490.54;;;5.14;84.63
26436;BME280;15351;52.408;16.826;2023-01-30T15:59:00;99487.06;;;5.10;84.74
26436;BME280;15351;52.408;16.826;2023-01-30T16:02:03;99485.80;;;5.07;84.83
26436;BME280;15351;52.408;16.826;2023-01-30T16:04:35;99483.79;;;5.07;84.84
26436;BME280;15351;52.408;16.826;2023-01-30T16:07:24;99474.81;;;5.09;84.87
26436;BME280;15351;52.408;16.826;2023-01-30T16:09:57;99469.77;;;5.10;84.77
26436;BME280;15351;52.408;16.826;2023-01-30T16:12:29;99476.61;;;5.11;84.76
26436;BME280;15351;52.408;16.826;2023-01-30T16:15:39;99475.88;;;5.11;84.79
26436;BME280;15351;52.408;16.826;2023-01-30T16:18:58;99478.13;;;5.15;84.87